Terminal Aerodrome Forecast
Issued by NWS

Home | Current Version | Previous Version | Text Only | Print | Product List | Glossary On
Versions: 1 2 3 4 5 6 7 8 9 10 11 12 13
000
FTUS44 KOUN 281727
TAFWWR
TAF
KWWR 281727Z 2818/2918 17005KT P6SM FEW050 FEW250
     FM282100 14011KT P6SM VCTS SCT050CB SCT120 SCT250
      TEMPO 2821/2901 VRB25G35KT 3SM TSRA BKN035CB OVC100
     FM290200 13006KT P6SM VCSH SCT060 BKN120
     FM290400 15006KT P6SM SCT120 BKN200
      AMD NOT SKED=

USA.gov is the U.S. government's official web portal to all federal, state and local government web resources and services.